createdAt,value
2016-10-09T00:00:29.028Z,0
2016-10-09T00:01:29.000Z,0
2016-10-09T00:02:28.973Z,0
2016-10-09T00:03:28.946Z,0
2016-10-09T00:04:28.910Z,0
2016-10-09T00:05:28.884Z,0
2016-10-09T00:06:28.851Z,0
2016-10-09T00:07:28.830Z,0
2016-10-09T00:08:28.801Z,0
2016-10-09T00:09:28.769Z,0
2016-10-09T00:10:28.734Z,0
2016-10-09T00:11:28.711Z,0
2016-10-09T00:12:28.679Z,0
2016-10-09T00:13:28.648Z,0
2016-10-09T00:14:28.615Z,0
2016-10-09T00:15:28.586Z,0
2016-10-09T00:16:28.565Z,0
2016-10-09T00:17:28.533Z,0
2016-10-09T00:18:28.495Z,0
2016-10-09T00:19:28.472Z,0
2016-10-09T00:20:28.442Z,0
2016-10-09T00:21:28.415Z,0
2016-10-09T00:22:28.391Z,0
2016-10-09T00:23:28.352Z,0
2016-10-09T00:24:28.331Z,0
2016-10-09T00:25:28.299Z,0
2016-10-09T00:26:28.273Z,0
2016-10-09T00:27:28.231Z,0
2016-10-09T00:28:28.206Z,0
2016-10-09T00:29:28.179Z,0
2016-10-09T00:30:28.148Z,0
2016-10-09T00:31:28.125Z,0
2016-10-09T00:32:28.094Z,0
2016-10-09T00:33:28.072Z,0
2016-10-09T00:34:28.038Z,0
2016-10-09T00:35:28.014Z,0
2016-10-09T00:36:27.976Z,0
2016-10-09T00:37:27.999Z,0
2016-10-09T00:38:27.918Z,0
2016-10-09T00:39:27.890Z,0
2016-10-09T00:40:27.863Z,0
2016-10-09T00:41:27.841Z,0
2016-10-09T00:42:27.810Z,0
2016-10-09T00:43:27.775Z,0
2016-10-09T00:44:27.746Z,0
2016-10-09T00:45:27.716Z,0
2016-10-09T00:46:27.684Z,0
2016-10-09T00:47:27.656Z,0
2016-10-09T00:48:27.628Z,0
2016-10-09T00:49:27.616Z,0
2016-10-09T00:50:27.575Z,0
2016-10-09T00:51:27.541Z,0
2016-10-09T00:52:27.524Z,0
2016-10-09T00:53:27.494Z,0
2016-10-09T00:54:27.712Z,0
2016-10-09T00:55:27.438Z,0
2016-10-09T00:56:27.396Z,0
2016-10-09T00:57:27.364Z,0
2016-10-09T00:58:27.344Z,0
2016-10-09T00:59:27.303Z,0
2016-10-09T01:00:27.290Z,0
2016-10-09T01:01:27.265Z,0
2016-10-09T01:02:27.225Z,0
2016-10-09T01:03:27.191Z,0
2016-10-09T01:04:27.171Z,0
2016-10-09T01:05:27.140Z,0
2016-10-09T01:06:27.109Z,0
2016-10-09T01:07:27.074Z,0
2016-10-09T01:08:27.047Z,0
2016-10-09T01:09:27.020Z,0
2016-10-09T01:10:27.012Z,0
2016-10-09T01:11:26.960Z,0
2016-10-09T01:12:26.936Z,0
2016-10-09T01:13:26.896Z,0
2016-10-09T01:14:26.885Z,0
2016-10-09T01:15:26.849Z,0
2016-10-09T01:16:26.818Z,0
2016-10-09T01:17:26.790Z,0
2016-10-09T01:18:26.763Z,0
2016-10-09T01:19:26.730Z,0
2016-10-09T01:20:26.707Z,0
2016-10-09T01:21:26.690Z,0
2016-10-09T01:22:26.643Z,0
2016-10-09T01:23:26.625Z,0
2016-10-09T01:24:26.579Z,0
2016-10-09T01:25:26.563Z,0
2016-10-09T01:26:26.529Z,0
2016-10-09T01:27:26.498Z,0
2016-10-09T01:28:26.475Z,0
2016-10-09T01:29:26.447Z,0
2016-10-09T01:30:26.415Z,0
2016-10-09T01:31:26.378Z,0
2016-10-09T01:32:26.358Z,0
2016-10-09T01:33:26.326Z,0
2016-10-09T01:34:26.301Z,0
2016-10-09T01:35:26.269Z,0
2016-10-09T01:36:26.292Z,0
2016-10-09T01:37:26.211Z,0
2016-10-09T01:38:26.189Z,0
2016-10-09T01:39:26.149Z,0
2016-10-09T01:40:26.137Z,0
2016-10-09T01:41:26.091Z,0
2016-10-09T01:42:26.063Z,0
2016-10-09T01:43:26.031Z,0
2016-10-09T01:44:26.005Z,0
2016-10-09T01:45:25.977Z,0
2016-10-09T01:46:25.951Z,0
2016-10-09T01:47:25.924Z,0
2016-10-09T01:48:25.890Z,0
2016-10-09T01:49:25.862Z,0
2016-10-09T01:50:25.832Z,0
2016-10-09T01:51:25.807Z,0
2016-10-09T01:52:25.776Z,0
2016-10-09T01:53:25.750Z,0
2016-10-09T01:54:25.722Z,0
2016-10-09T01:55:25.688Z,0
2016-10-09T01:56:25.668Z,0
2016-10-09T01:57:25.630Z,0
2016-10-09T01:58:25.602Z,0
2016-10-09T01:59:25.572Z,0
2016-10-09T02:00:25.542Z,0
2016-10-09T02:01:25.524Z,0
2016-10-09T02:02:25.797Z,0
2016-10-09T02:03:25.762Z,0
2016-10-09T02:04:25.430Z,0
2016-10-09T02:05:25.397Z,0
2016-10-09T02:06:25.370Z,0
2016-10-09T02:07:25.347Z,0
2016-10-09T02:08:25.311Z,0
2016-10-09T02:09:25.285Z,0
2016-10-09T02:10:25.249Z,0
2016-10-09T02:11:25.228Z,0
2016-10-09T02:12:25.195Z,0
2016-10-09T02:13:25.170Z,0
2016-10-09T02:14:25.133Z,0
2016-10-09T02:15:25.115Z,0
2016-10-09T02:16:25.081Z,0
2016-10-09T02:17:25.048Z,0
2016-10-09T02:18:25.022Z,0
2016-10-09T02:19:24.996Z,0
2016-10-09T02:20:24.961Z,0
2016-10-09T02:21:24.935Z,0
2016-10-09T02:22:24.904Z,0
2016-10-09T02:23:24.880Z,0
2016-10-09T02:24:24.850Z,0
2016-10-09T02:25:24.821Z,0
2016-10-09T02:26:24.789Z,0
2016-10-09T02:27:24.762Z,0
2016-10-09T02:28:24.735Z,0
2016-10-09T02:29:24.700Z,0
2016-10-09T02:30:24.669Z,0
2016-10-09T02:31:24.641Z,0
2016-10-09T02:32:24.610Z,0
2016-10-09T02:33:24.585Z,0
2016-10-09T02:34:24.568Z,0
2016-10-09T02:35:24.528Z,0
2016-10-09T02:36:24.496Z,0
2016-10-09T02:37:24.467Z,0
2016-10-09T02:38:24.448Z,0
2016-10-09T02:39:24.414Z,0
2016-10-09T02:40:24.392Z,0
2016-10-09T02:41:24.347Z,0
2016-10-09T02:42:24.334Z,0
2016-10-09T02:43:24.306Z,0
2016-10-09T02:44:24.264Z,0
2016-10-09T02:45:24.234Z,0
2016-10-09T02:46:24.204Z,0
2016-10-09T02:47:24.171Z,0
2016-10-09T02:48:24.444Z,0
2016-10-09T02:49:24.424Z,0
2016-10-09T02:50:24.099Z,0
2016-10-09T02:51:24.060Z,0
2016-10-09T02:52:24.029Z,0
2016-10-09T02:53:24.002Z,0
2016-10-09T02:54:23.972Z,0
2016-10-09T02:55:23.943Z,0
2016-10-09T02:56:23.920Z,0
2016-10-09T02:57:23.885Z,0
2016-10-09T02:58:23.867Z,0
2016-10-09T02:59:23.824Z,0
2016-10-09T03:00:23.796Z,0
2016-10-09T03:01:23.764Z,0
2016-10-09T03:02:23.736Z,0
2016-10-09T03:03:23.703Z,0
2016-10-09T03:04:23.674Z,0
2016-10-09T03:05:23.654Z,0
2016-10-09T03:06:23.626Z,0
2016-10-09T03:07:23.604Z,0
2016-10-09T03:08:23.592Z,0
2016-10-09T03:09:23.540Z,0
2016-10-09T03:10:23.512Z,0
2016-10-09T03:11:23.487Z,0
2016-10-09T03:12:23.458Z,0
2016-10-09T03:13:23.430Z,0
2016-10-09T03:14:23.399Z,0
2016-10-09T03:15:23.364Z,0
2016-10-09T03:16:23.342Z,0
2016-10-09T03:17:23.304Z,0
2016-10-09T03:18:23.271Z,0
2016-10-09T03:19:23.251Z,0
2016-10-09T03:20:23.220Z,0
2016-10-09T03:21:23.192Z,0
2016-10-09T03:22:23.145Z,0
2016-10-09T03:23:23.131Z,0
2016-10-09T03:24:23.112Z,0
2016-10-09T03:25:23.073Z,0
2016-10-09T03:26:23.040Z,0
2016-10-09T03:27:23.026Z,0
2016-10-09T03:28:22.986Z,0
2016-10-09T03:29:22.961Z,0
2016-10-09T03:30:22.932Z,0
2016-10-09T03:31:22.906Z,0
2016-10-09T03:32:22.873Z,0
2016-10-09T03:33:22.837Z,0
2016-10-09T03:34:22.807Z,0
2016-10-09T03:35:22.781Z,0
2016-10-09T03:36:22.743Z,0
2016-10-09T03:37:22.726Z,0
2016-10-09T03:38:22.688Z,0
2016-10-09T03:39:22.973Z,0
2016-10-09T03:40:22.624Z,0
2016-10-09T03:41:22.912Z,0
2016-10-09T03:42:22.875Z,0
2016-10-09T03:43:22.543Z,0
2016-10-09T03:44:22.507Z,0
2016-10-09T03:45:22.790Z,0
2016-10-09T03:46:22.747Z,0
2016-10-09T03:47:22.418Z,0
2016-10-09T03:48:22.389Z,0
2016-10-09T03:49:22.356Z,0
2016-10-09T03:50:22.330Z,0
2016-10-09T03:51:22.299Z,0
2016-10-09T03:52:22.275Z,0
2016-10-09T03:53:22.242Z,0
2016-10-09T03:54:22.228Z,0
2016-10-09T03:55:22.188Z,0
2016-10-09T03:56:22.153Z,0
2016-10-09T03:57:22.134Z,0
2016-10-09T03:58:22.101Z,0
2016-10-09T03:59:22.070Z,0
2016-10-09T04:00:22.042Z,0
2016-10-09T04:01:22.008Z,0
2016-10-09T04:02:21.998Z,0
2016-10-09T04:03:21.953Z,0
2016-10-09T04:04:21.925Z,0
2016-10-09T04:05:22.194Z,0
2016-10-09T04:06:22.169Z,0
2016-10-09T04:07:21.838Z,0
2016-10-09T04:08:21.810Z,0
2016-10-09T04:09:21.779Z,0
2016-10-09T04:10:21.750Z,0
2016-10-09T04:11:21.719Z,0
2016-10-09T04:12:21.692Z,0
2016-10-09T04:13:21.658Z,0
2016-10-09T04:14:21.932Z,0
2016-10-09T04:15:21.607Z,0
2016-10-09T04:16:21.575Z,0
2016-10-09T04:17:21.556Z,0
2016-10-09T04:18:21.513Z,0
2016-10-09T04:19:21.488Z,0
2016-10-09T04:20:21.459Z,0
2016-10-09T04:21:21.430Z,0
2016-10-09T04:22:21.411Z,0
2016-10-09T04:23:21.369Z,0
2016-10-09T04:24:21.352Z,0
2016-10-09T04:25:21.611Z,0
2016-10-09T04:26:21.291Z,0
2016-10-09T04:27:21.258Z,0
2016-10-09T04:28:21.227Z,0
2016-10-09T04:29:21.200Z,0
2016-10-09T04:30:21.463Z,0
2016-10-09T04:31:21.138Z,0
2016-10-09T04:32:21.116Z,0
2016-10-09T04:33:21.079Z,0
2016-10-09T04:34:21.053Z,0
2016-10-09T04:35:21.027Z,0
2016-10-09T04:36:20.994Z,0
2016-10-09T04:37:20.968Z,0
2016-10-09T04:38:20.931Z,0
2016-10-09T04:39:20.905Z,0
2016-10-09T04:40:20.877Z,0
2016-10-09T04:41:20.862Z,0
2016-10-09T04:42:21.426Z,0
2016-10-09T04:43:20.785Z,0
2016-10-09T04:44:21.059Z,0
2016-10-09T04:45:20.730Z,0
2016-10-09T04:46:20.706Z,0
2016-10-09T04:47:20.670Z,0
2016-10-09T04:48:20.640Z,0
2016-10-09T04:49:20.878Z,0
2016-10-09T04:50:20.588Z,0
2016-10-09T04:51:20.552Z,0
2016-10-09T04:52:20.535Z,0
2016-10-09T04:53:20.493Z,0
2016-10-09T04:54:20.469Z,0
2016-10-09T04:55:20.438Z,0
2016-10-09T04:56:20.412Z,0
2016-10-09T04:57:20.378Z,0
2016-10-09T04:58:20.352Z,0
2016-10-09T04:59:20.629Z,0
2016-10-09T05:00:20.295Z,0
2016-10-09T05:01:20.265Z,0
2016-10-09T05:02:20.236Z,0
2016-10-09T05:03:20.520Z,0
2016-10-09T05:04:20.182Z,0
2016-10-09T05:05:20.146Z,0
2016-10-09T05:06:20.120Z,0
2016-10-09T05:07:20.086Z,0
2016-10-09T05:08:20.061Z,0
2016-10-09T05:09:20.029Z,0
2016-10-09T05:10:20.004Z,0
2016-10-09T05:11:19.971Z,0
2016-10-09T05:12:19.949Z,4
2016-10-09T05:13:19.929Z,4
2016-10-09T05:14:19.884Z,0
2016-10-09T05:15:19.856Z,4
2016-10-09T05:16:19.826Z,8
2016-10-09T05:17:19.797Z,4
2016-10-09T05:18:19.769Z,4
2016-10-09T05:19:19.760Z,8
2016-10-09T05:20:19.710Z,12
2016-10-09T05:21:19.683Z,12
2016-10-09T05:22:19.652Z,12
2016-10-09T05:23:19.624Z,16
2016-10-09T05:24:19.590Z,16
2016-10-09T05:25:19.566Z,24
2016-10-09T05:26:19.531Z,28
2016-10-09T05:27:19.506Z,36
2016-10-09T05:28:19.472Z,40
2016-10-09T05:29:19.446Z,48
2016-10-09T05:30:19.426Z,60
2016-10-09T05:31:19.389Z,68
2016-10-09T05:32:19.362Z,80
2016-10-09T05:33:19.333Z,92
2016-10-09T05:34:19.302Z,108
2016-10-09T05:35:19.275Z,128
2016-10-09T05:36:19.237Z,144
2016-10-09T05:37:19.213Z,164
2016-10-09T05:38:19.179Z,188
2016-10-09T05:39:19.159Z,216
2016-10-09T05:40:19.122Z,240
2016-10-09T05:41:19.099Z,268
2016-10-09T05:42:19.076Z,300
2016-10-09T05:43:19.036Z,328
2016-10-09T05:44:19.008Z,360
2016-10-09T05:45:18.979Z,400
2016-10-09T05:46:18.954Z,432
2016-10-09T05:47:18.915Z,468
2016-10-09T05:48:18.889Z,512
2016-10-09T05:49:18.862Z,556
2016-10-09T05:50:18.833Z,596
2016-10-09T05:51:18.800Z,640
2016-10-09T05:52:18.774Z,688
2016-10-09T05:53:18.745Z,736
2016-10-09T05:54:18.709Z,788
2016-10-09T05:55:18.681Z,832
2016-10-09T05:56:18.655Z,884
2016-10-09T05:57:18.617Z,940
2016-10-09T05:58:18.595Z,1000
2016-10-09T05:59:18.564Z,1060
2016-10-09T06:00:18.544Z,1116
2016-10-09T06:01:18.499Z,1172
2016-10-09T06:02:18.474Z,1228
2016-10-09T06:03:18.451Z,1280
2016-10-09T06:04:18.412Z,1336
2016-10-09T06:05:18.382Z,1396
2016-10-09T06:06:18.353Z,1460
2016-10-09T06:07:18.334Z,1524
2016-10-09T06:08:18.300Z,1588
2016-10-09T06:09:18.268Z,1648
2016-10-09T06:10:18.233Z,1700
2016-10-09T06:11:18.209Z,1756
2016-10-09T06:12:18.182Z,1796
2016-10-09T06:13:18.173Z,1848
2016-10-09T06:14:18.721Z,1900
2016-10-09T06:15:18.089Z,1964
2016-10-09T06:16:18.066Z,2036
2016-10-09T06:17:18.031Z,2104
2016-10-09T06:18:18.000Z,2168
2016-10-09T06:19:17.968Z,2232
2016-10-09T06:20:17.947Z,2288
2016-10-09T06:21:17.918Z,2344
2016-10-09T06:22:17.881Z,2400
2016-10-09T06:23:17.855Z,2456
2016-10-09T06:24:17.824Z,2504
2016-10-09T06:25:17.797Z,2556
2016-10-09T06:26:17.765Z,2600
2016-10-09T06:27:17.735Z,2644
2016-10-09T06:28:17.702Z,2672
2016-10-09T06:29:17.674Z,2704
2016-10-09T06:30:17.646Z,2744
2016-10-09T06:31:17.617Z,2776
2016-10-09T06:32:17.588Z,2820
2016-10-09T06:33:17.568Z,2856
2016-10-09T06:34:17.529Z,2888
2016-10-09T06:35:17.498Z,2924
2016-10-09T06:36:17.469Z,2956
2016-10-09T06:37:17.447Z,2984
2016-10-09T06:38:17.408Z,3004
2016-10-09T06:39:17.381Z,3032
2016-10-09T06:40:17.344Z,3056
2016-10-09T06:41:17.317Z,3076
2016-10-09T06:42:17.284Z,3100
2016-10-09T06:43:17.262Z,3128
2016-10-09T06:44:17.226Z,3172
2016-10-09T06:45:17.197Z,3196
2016-10-09T06:46:17.174Z,3216
2016-10-09T06:47:17.139Z,3248
2016-10-09T06:48:17.112Z,3296
2016-10-09T06:49:17.081Z,3340
2016-10-09T06:50:17.055Z,3372
2016-10-09T06:51:17.024Z,3396
2016-10-09T06:52:16.995Z,3424
2016-10-09T06:53:16.964Z,3460
2016-10-09T06:54:16.932Z,3504
2016-10-09T06:55:16.906Z,3560
2016-10-09T06:56:16.878Z,3616
2016-10-09T06:57:16.843Z,3668
2016-10-09T06:58:16.814Z,3724
2016-10-09T06:59:16.790Z,3820
2016-10-09T07:00:16.760Z,3948
2016-10-09T07:01:16.724Z,4040
2016-10-09T07:02:16.708Z,4100
2016-10-09T07:03:16.666Z,4084
2016-10-09T07:04:16.645Z,4088
2016-10-09T07:05:16.611Z,4104
2016-10-09T07:06:16.577Z,4140
2016-10-09T07:07:16.549Z,4164
2016-10-09T07:08:16.527Z,4204
2016-10-09T07:09:16.491Z,4272
2016-10-09T07:10:16.763Z,4368
2016-10-09T07:11:16.438Z,4588
2016-10-09T07:12:16.420Z,4900
2016-10-09T07:13:16.373Z,5172
2016-10-09T07:14:16.347Z,5412
2016-10-09T07:15:16.323Z,5352
2016-10-09T07:16:16.285Z,5076
2016-10-09T07:17:16.254Z,4904
2016-10-09T07:18:16.229Z,4796
2016-10-09T07:19:16.198Z,4776
2016-10-09T07:20:16.169Z,4816
2016-10-09T07:21:16.137Z,4908
2016-10-09T07:22:16.111Z,5152
2016-10-09T07:23:16.078Z,5492
2016-10-09T07:24:16.050Z,5692
2016-10-09T07:25:16.026Z,5740
2016-10-09T07:26:15.996Z,5788
2016-10-09T07:27:15.967Z,5860
2016-10-09T07:28:15.939Z,5896
2016-10-09T07:29:15.899Z,5912
2016-10-09T07:30:15.877Z,5968
2016-10-09T07:31:15.849Z,5996
2016-10-09T07:32:15.822Z,6016
2016-10-09T07:33:15.782Z,6004
2016-10-09T07:34:15.758Z,5980
2016-10-09T07:35:15.734Z,5932
2016-10-09T07:36:15.703Z,5900
2016-10-09T07:37:15.665Z,5864
2016-10-09T07:38:15.643Z,5844
2016-10-09T07:39:15.611Z,5836
2016-10-09T07:40:15.582Z,5840
2016-10-09T07:41:15.548Z,5856
2016-10-09T07:42:15.524Z,5908
2016-10-09T07:43:15.491Z,5960
2016-10-09T07:44:15.467Z,6016
2016-10-09T07:45:15.435Z,6032
2016-10-09T07:46:15.410Z,6076
2016-10-09T07:47:15.374Z,6136
2016-10-09T07:48:15.352Z,6156
2016-10-09T07:49:15.317Z,6164
2016-10-09T07:50:15.292Z,6144
2016-10-09T07:51:15.261Z,6156
2016-10-09T07:52:15.232Z,6184
2016-10-09T07:53:15.200Z,6200
2016-10-09T07:54:15.176Z,6208
2016-10-09T07:55:15.147Z,6208
2016-10-09T07:56:15.125Z,6212
2016-10-09T07:57:15.090Z,6232
2016-10-09T07:58:15.059Z,6240
2016-10-09T07:59:15.036Z,6240
2016-10-09T08:00:15.012Z,6244
2016-10-09T08:01:14.977Z,6248
2016-10-09T08:02:14.946Z,6256
2016-10-09T08:03:14.915Z,6268
2016-10-09T08:04:14.886Z,6288
2016-10-09T08:05:14.853Z,6312
2016-10-09T08:06:14.826Z,6348
2016-10-09T08:07:14.799Z,6388
2016-10-09T08:08:14.780Z,6404
2016-10-09T08:09:14.742Z,6396
2016-10-09T08:10:14.713Z,6400
2016-10-09T08:11:14.685Z,6396
2016-10-09T08:12:14.660Z,6376
2016-10-09T08:13:14.629Z,6372
2016-10-09T08:14:14.602Z,6372
2016-10-09T08:15:14.577Z,6384
2016-10-09T08:16:14.546Z,6428
2016-10-09T08:17:14.520Z,6456
2016-10-09T08:18:14.499Z,6444
2016-10-09T08:19:14.458Z,6432
2016-10-09T08:20:14.430Z,6404
2016-10-09T08:21:14.402Z,6368
2016-10-09T08:22:14.376Z,6336
2016-10-09T08:23:14.348Z,6316
2016-10-09T08:24:14.319Z,6296
2016-10-09T08:25:14.287Z,6284
2016-10-09T08:26:14.261Z,6292
2016-10-09T08:27:14.232Z,6308
2016-10-09T08:28:14.209Z,6300
2016-10-09T08:29:14.175Z,6272
2016-10-09T08:30:14.156Z,6256
2016-10-09T08:31:14.119Z,6276
2016-10-09T08:32:14.107Z,6292
2016-10-09T08:33:14.059Z,6300
2016-10-09T08:34:14.034Z,6312
2016-10-09T08:35:14.012Z,6380
2016-10-09T08:36:13.978Z,6460
2016-10-09T08:37:13.950Z,6528
2016-10-09T08:38:13.920Z,6548
2016-10-09T08:39:13.897Z,6596
2016-10-09T08:40:13.874Z,6624
2016-10-09T08:41:13.838Z,6612
2016-10-09T08:42:13.809Z,6604
2016-10-09T08:43:13.784Z,6580
2016-10-09T08:44:13.756Z,6536
2016-10-09T08:45:13.728Z,6512
2016-10-09T08:46:13.713Z,6520
2016-10-09T08:47:13.672Z,6472
2016-10-09T08:48:13.648Z,6420
2016-10-09T08:49:13.615Z,6408
2016-10-09T08:50:13.588Z,6332
2016-10-09T08:51:13.560Z,6312
2016-10-09T08:52:13.540Z,6308
2016-10-09T08:53:13.505Z,6284
2016-10-09T08:54:13.477Z,6392
2016-10-09T08:55:13.450Z,6696
2016-10-09T08:56:13.422Z,6880
2016-10-09T08:57:13.414Z,6828
2016-10-09T08:58:13.373Z,6788
2016-10-09T08:59:13.350Z,6916
2016-10-09T09:00:13.314Z,7332
2016-10-09T09:01:13.295Z,7676
2016-10-09T09:02:13.267Z,7644
2016-10-09T09:03:13.231Z,7676
2016-10-09T09:04:13.201Z,7696
2016-10-09T09:05:13.177Z,7996
2016-10-09T09:06:13.145Z,7568
2016-10-09T09:07:13.121Z,7768
2016-10-09T09:08:13.093Z,8296
2016-10-09T09:09:13.067Z,8264
2016-10-09T09:10:13.041Z,8204
2016-10-09T09:11:13.014Z,8088
2016-10-09T09:12:12.985Z,7780
2016-10-09T09:13:12.964Z,7736
2016-10-09T09:14:12.934Z,7776
2016-10-09T09:15:12.900Z,7648
2016-10-09T09:16:12.883Z,7812
2016-10-09T09:17:12.852Z,7912
2016-10-09T09:18:13.123Z,7564
2016-10-09T09:19:12.793Z,7476
2016-10-09T09:20:12.775Z,7720
2016-10-09T09:21:12.752Z,8252
2016-10-09T09:22:12.718Z,8952
2016-10-09T09:23:12.689Z,9196
2016-10-09T09:24:12.664Z,9180
2016-10-09T09:25:12.635Z,9072
2016-10-09T09:26:12.614Z,8588
2016-10-09T09:27:12.586Z,8348
2016-10-09T09:28:12.556Z,8340
2016-10-09T09:29:12.533Z,9196
2016-10-09T09:30:12.503Z,10480
2016-10-09T09:31:12.479Z,11812
2016-10-09T09:32:12.452Z,11764
2016-10-09T09:33:12.438Z,10232
2016-10-09T09:34:12.404Z,9120
2016-10-09T09:35:12.370Z,9248
2016-10-09T09:36:12.347Z,9236
2016-10-09T09:37:12.316Z,9456
2016-10-09T09:38:12.297Z,9720
2016-10-09T09:39:12.285Z,10604
2016-10-09T09:40:12.239Z,12060
2016-10-09T09:41:12.212Z,13136
2016-10-09T09:42:12.191Z,14464
2016-10-09T09:43:12.163Z,15796
2016-10-09T09:44:12.137Z,16224
2016-10-09T09:45:12.109Z,17380
2016-10-09T09:46:12.087Z,18496
2016-10-09T09:47:12.060Z,17524
2016-10-09T09:48:12.036Z,17228
2016-10-09T09:49:12.008Z,16288
2016-10-09T09:50:11.983Z,16156
2016-10-09T09:51:11.962Z,16644
2016-10-09T09:52:11.935Z,16592
2016-10-09T09:53:11.911Z,14680
2016-10-09T09:54:11.886Z,12372
2016-10-09T09:55:11.858Z,10876
2016-10-09T09:56:11.833Z,10272
2016-10-09T09:57:11.820Z,10136
2016-10-09T09:58:11.780Z,10148
2016-10-09T09:59:11.763Z,9592
2016-10-09T10:00:11.741Z,8592
2016-10-09T10:01:11.712Z,8868
2016-10-09T10:02:11.689Z,8852
2016-10-09T10:03:11.660Z,8824
2016-10-09T10:04:11.639Z,8168
2016-10-09T10:05:11.616Z,8036
2016-10-09T10:06:11.588Z,8272
2016-10-09T10:07:11.558Z,8872
2016-10-09T10:08:11.540Z,9956
2016-10-09T10:09:11.510Z,10608
2016-10-09T10:10:11.496Z,11256
2016-10-09T10:11:11.466Z,12024
2016-10-09T10:12:11.440Z,12700
2016-10-09T10:13:11.418Z,12792
2016-10-09T10:14:11.388Z,12472
2016-10-09T10:15:11.360Z,12748
2016-10-09T10:16:11.340Z,13304
2016-10-09T10:17:11.313Z,14396
2016-10-09T10:18:11.296Z,15256
2016-10-09T10:19:11.265Z,16276
2016-10-09T10:20:11.238Z,16640
2016-10-09T10:21:11.213Z,17232
2016-10-09T10:22:11.199Z,18432
2016-10-09T10:23:11.164Z,19936
2016-10-09T10:24:11.148Z,21312
2016-10-09T10:25:11.113Z,22528
2016-10-09T10:26:11.096Z,23360
2016-10-09T10:27:11.076Z,23328
2016-10-09T10:28:11.047Z,22048
2016-10-09T10:29:11.027Z,20256
2016-10-09T10:30:10.998Z,18592
2016-10-09T10:31:10.977Z,15816
2016-10-09T10:32:10.953Z,13360
2016-10-09T10:33:10.937Z,11800
2016-10-09T10:34:10.906Z,11128
2016-10-09T10:35:10.885Z,10424
2016-10-09T10:36:10.861Z,9428
2016-10-09T10:37:10.843Z,8780
2016-10-09T10:38:10.821Z,8196
2016-10-09T10:39:10.807Z,7864
2016-10-09T10:40:10.768Z,7976
2016-10-09T10:41:10.748Z,8420
2016-10-09T10:42:10.730Z,8428
2016-10-09T10:43:10.700Z,8356
2016-10-09T10:44:10.675Z,8348
2016-10-09T10:45:10.657Z,8108
2016-10-09T10:46:10.627Z,7808
2016-10-09T10:47:10.605Z,7932
2016-10-09T10:48:10.585Z,8092
2016-10-09T10:49:10.557Z,8116
2016-10-09T10:50:10.536Z,8232
2016-10-09T10:51:10.513Z,8420
2016-10-09T10:52:10.493Z,8644
2016-10-09T10:53:10.463Z,8804
2016-10-09T10:54:10.438Z,8928
2016-10-09T10:55:10.423Z,9156
2016-10-09T10:56:10.388Z,9404
2016-10-09T10:57:10.370Z,9724
2016-10-09T10:58:10.342Z,9988
2016-10-09T10:59:10.326Z,10352
2016-10-09T11:00:10.295Z,10924
2016-10-09T11:01:10.278Z,11592
2016-10-09T11:02:10.250Z,12380
2016-10-09T11:03:10.225Z,12928
2016-10-09T11:04:10.199Z,14004
2016-10-09T11:05:10.180Z,14132
2016-10-09T11:06:10.152Z,14736
2016-10-09T11:07:10.127Z,15596
2016-10-09T11:08:10.102Z,17008
2016-10-09T11:09:10.080Z,18848
2016-10-09T11:10:10.058Z,20576
2016-10-09T11:11:10.036Z,21792
2016-10-09T11:12:10.008Z,22976
2016-10-09T11:13:09.986Z,23200
2016-10-09T11:14:09.959Z,23232
2016-10-09T11:15:09.957Z,22944
2016-10-09T11:16:09.928Z,22016
2016-10-09T11:17:09.889Z,20928
2016-10-09T11:18:09.873Z,19136
2016-10-09T11:19:09.846Z,17664
2016-10-09T11:20:09.826Z,15764
2016-10-09T11:21:09.801Z,14068
2016-10-09T11:22:09.781Z,12748
2016-10-09T11:23:09.757Z,11712
2016-10-09T11:24:09.739Z,11176
2016-10-09T11:25:09.715Z,10488
2016-10-09T11:26:09.692Z,9656
2016-10-09T11:27:09.979Z,9392
2016-10-09T11:28:09.949Z,8768
2016-10-09T11:29:09.623Z,8540
2016-10-09T11:30:09.605Z,8384
2016-10-09T11:31:09.582Z,8388
2016-10-09T11:32:09.567Z,8392
2016-10-09T11:33:09.538Z,8476
2016-10-09T11:34:09.516Z,8620
2016-10-09T11:35:09.495Z,8744
2016-10-09T11:36:09.474Z,8892
2016-10-09T11:37:09.453Z,9048
2016-10-09T11:38:09.436Z,9192
2016-10-09T11:39:09.403Z,9172
2016-10-09T11:40:09.386Z,8992
2016-10-09T11:41:09.356Z,8812
2016-10-09T11:42:09.337Z,8644
2016-10-09T11:43:09.322Z,8512
2016-10-09T11:44:09.290Z,8444
2016-10-09T11:45:09.272Z,8460
2016-10-09T11:46:09.257Z,8612
2016-10-09T11:47:09.233Z,8876
2016-10-09T11:48:09.206Z,9312
2016-10-09T11:49:09.182Z,9960
2016-10-09T11:50:09.460Z,10840
2016-10-09T11:51:09.129Z,11000
2016-10-09T11:52:09.138Z,10972
2016-10-09T11:53:09.084Z,11212
2016-10-09T11:54:09.060Z,11972
2016-10-09T11:55:09.054Z,12964
2016-10-09T11:56:09.014Z,14028
2016-10-09T11:57:08.992Z,15488
2016-10-09T11:58:08.966Z,17072
2016-10-09T11:59:08.937Z,18560
2016-10-09T12:00:08.920Z,19200
2016-10-09T12:01:08.897Z,19104
2016-10-09T12:02:08.874Z,20064
2016-10-09T12:03:08.850Z,21184
2016-10-09T12:04:08.832Z,21792
2016-10-09T12:05:08.804Z,22048
2016-10-09T12:06:08.783Z,21824
2016-10-09T12:07:08.772Z,21152
2016-10-09T12:08:08.733Z,19712
2016-10-09T12:09:08.731Z,18208
2016-10-09T12:10:08.989Z,16852
2016-10-09T12:11:08.672Z,16648
2016-10-09T12:12:08.652Z,16336
2016-10-09T12:13:08.639Z,15360
2016-10-09T12:14:08.609Z,14632
2016-10-09T12:15:08.585Z,13712
2016-10-09T12:16:08.568Z,12252
2016-10-09T12:17:08.543Z,11460
2016-10-09T12:18:08.520Z,10844
2016-10-09T12:19:08.497Z,10272
2016-10-09T12:20:08.480Z,9696
2016-10-09T12:21:08.455Z,9108
2016-10-09T12:22:08.436Z,8556
2016-10-09T12:23:08.415Z,8080
2016-10-09T12:24:08.391Z,7728
2016-10-09T12:25:08.372Z,7588
2016-10-09T12:26:08.354Z,7672
2016-10-09T12:27:08.330Z,7832
2016-10-09T12:28:08.305Z,8044
2016-10-09T12:29:08.284Z,8260
2016-10-09T12:30:08.270Z,8460
2016-10-09T12:31:08.248Z,8708
2016-10-09T12:32:08.220Z,8992
2016-10-09T12:33:08.199Z,9356
2016-10-09T12:34:08.175Z,9756
2016-10-09T12:35:08.167Z,10136
2016-10-09T12:36:08.132Z,10476
2016-10-09T12:37:08.114Z,10820
2016-10-09T12:38:08.084Z,11164
2016-10-09T12:39:08.069Z,11444
2016-10-09T12:40:08.041Z,11668
2016-10-09T12:41:08.024Z,11832
2016-10-09T12:42:08.001Z,11976
2016-10-09T12:43:07.985Z,12228
2016-10-09T12:44:08.063Z,12520
2016-10-09T12:45:07.933Z,12804
2016-10-09T12:46:07.910Z,13036
2016-10-09T12:47:07.899Z,13388
2016-10-09T12:48:07.866Z,13880
2016-10-09T12:49:07.846Z,14388
2016-10-09T12:50:07.825Z,15272
2016-10-09T12:51:07.804Z,16336
2016-10-09T12:52:07.785Z,17356
2016-10-09T12:53:07.751Z,18336
2016-10-09T12:54:07.769Z,18976
2016-10-09T12:55:07.724Z,19456
2016-10-09T12:56:07.682Z,19712
2016-10-09T12:57:07.662Z,19616
2016-10-09T12:58:07.640Z,19616
2016-10-09T12:59:07.620Z,19872
2016-10-09T13:00:07.593Z,20608
2016-10-09T13:01:07.575Z,21440
2016-10-09T13:02:07.547Z,21280
2016-10-09T13:03:07.534Z,20128
2016-10-09T13:04:07.510Z,19200
2016-10-09T13:05:07.488Z,18560
2016-10-09T13:06:07.460Z,18464
2016-10-09T13:07:07.443Z,18368
2016-10-09T13:08:07.420Z,18592
2016-10-09T13:09:07.407Z,18144
2016-10-09T13:10:07.692Z,18080
2016-10-09T13:11:07.368Z,18240
2016-10-09T13:12:07.336Z,18208
2016-10-09T13:13:07.314Z,18080
2016-10-09T13:14:07.596Z,17952
2016-10-09T13:15:07.278Z,17952
2016-10-09T13:16:07.258Z,17792
2016-10-09T13:17:07.236Z,17080
2016-10-09T13:18:07.212Z,16568
2016-10-09T13:19:07.189Z,16204
2016-10-09T13:20:07.167Z,15912
2016-10-09T13:21:07.147Z,15332
2016-10-09T13:22:07.126Z,14356
2016-10-09T13:23:07.104Z,14008
2016-10-09T13:24:07.080Z,13636
2016-10-09T13:25:07.065Z,12884
2016-10-09T13:26:07.056Z,12096
2016-10-09T13:27:07.020Z,11048
2016-10-09T13:28:06.994Z,10052
2016-10-09T13:29:06.999Z,9320
2016-10-09T13:30:06.956Z,8840
2016-10-09T13:31:06.941Z,8624
2016-10-09T13:32:06.916Z,8636
2016-10-09T13:33:06.895Z,8672
2016-10-09T13:34:06.879Z,8716
2016-10-09T13:35:06.847Z,8820
2016-10-09T13:36:06.827Z,8856
2016-10-09T13:37:06.814Z,9176
2016-10-09T13:38:06.786Z,9592
2016-10-09T13:39:06.767Z,10132
2016-10-09T13:40:06.746Z,10648
2016-10-09T13:41:06.721Z,11092
2016-10-09T13:42:06.695Z,11612
2016-10-09T13:43:06.674Z,12448
2016-10-09T13:44:06.651Z,13264
2016-10-09T13:45:06.628Z,13712
2016-10-09T13:46:06.603Z,13780